Aviation Digital Data Service (ADDS)

Output produced by METARs form (2236 UTC 30 March 2017)
found at http://www.aviationweather.gov/adds/metars/
 
TAF MDST 301600Z 3018/3118 13006KT 9999 BKN018 SCT080 
     PROB30 3018/3100 8000 -SH BKN016 SCT070 
     BECMG 3020/3022 02006KT
       
TAF MDPP 301600Z 3018/3118 33010KT 9999 BKN020 BKN070 
     PROB40 7000 -RA BKN018 OVC070
       
TAF MDLR 301600Z 3018/3118 10012KT 9999 SCT022 
     BECMG 3102/3104 00000KT
       
TAF MDSD 301600Z 3018/3118 06006KT 9999 BKN020 SCT070 
     PROB30 3018/3100 7000 -RA BKN016 SCT070 
     BECMG 3019/3021 16005KT 
       
TAF MDBH 301600Z 3018/3118 13012KT 9999 FEW020CB FEW022 
       
TAF MDPC 301600Z 3018/3118 04012KT 9999 FEW020 
     PROB30 3022/3104 8000 VCSH FEW018 SCT070